createdAt,value
2022-10-01T00:01:29.013Z,9.82
2022-10-01T00:03:57.130Z,10.77
2022-10-01T00:06:26.444Z,3.85
2022-10-01T00:08:54.389Z,4.18
2022-10-01T00:11:26.753Z,8.90
2022-10-01T00:13:55.693Z,5.03
2022-10-01T00:16:26.007Z,8.10
2022-10-01T00:18:54.537Z,10.77
2022-10-01T00:21:25.273Z,6.85
2022-10-01T00:23:56.989Z,5.00
2022-10-01T00:26:27.440Z,6.72
2022-10-01T00:28:57.308Z,5.40
2022-10-01T00:31:26.805Z,7.38
2022-10-01T00:33:55.215Z,5.40
2022-10-01T00:36:25.817Z,6.68
2022-10-01T00:38:53.841Z,6.88
2022-10-01T00:41:23.445Z,6.28
2022-10-01T00:43:56.751Z,8.40
2022-10-01T00:46:30.011Z,4.82
2022-10-01T00:49:04.486Z,6.90
2022-10-01T00:51:36.890Z,7.30
2022-10-01T00:54:10.402Z,11.57
2022-10-01T00:56:40.592Z,10.18
2022-10-01T00:59:09.149Z,11.55
2022-10-01T01:01:39.009Z,10.75
2022-10-01T01:04:16.337Z,11.57
2022-10-01T01:06:46.129Z,10.65
2022-10-01T01:09:14.502Z,9.70
2022-10-01T01:11:54.389Z,10.65
2022-10-01T01:14:30.064Z,9.70
2022-10-01T01:17:02.902Z,13.30
2022-10-01T01:19:45.258Z,13.95
2022-10-01T01:22:15.741Z,12.52
2022-10-01T01:24:50.099Z,10.77
2022-10-01T01:27:35.785Z,11.77
2022-10-01T01:30:08.647Z,8.88
2022-10-01T01:32:46.487Z,14.85
2022-10-01T01:35:20.805Z,16.50
2022-10-01T01:37:53.564Z,14.75
2022-10-01T01:40:23.216Z,13.43
2022-10-01T01:42:54.419Z,16.63
2022-10-01T01:45:28.726Z,13.55
2022-10-01T01:47:59.731Z,17.25
2022-10-01T01:50:33.484Z,16.77
2022-10-01T01:53:02.447Z,15.88
2022-10-01T01:55:32.136Z,16.65
2022-10-01T01:58:00.508Z,14.43
2022-10-01T02:00:30.316Z,19.77
2022-10-01T02:02:59.264Z,14.35
2022-10-01T02:05:35.332Z,14.95
2022-10-01T02:08:27.796Z,14.15
2022-10-01T02:11:06.565Z,12.35
2022-10-01T02:13:44.372Z,12.20
2022-10-01T02:16:22.942Z,13.48
2022-10-01T02:18:58.656Z,9.18
2022-10-01T02:21:32.163Z,14.75
2022-10-01T02:24:06.891Z,9.68
2022-10-01T02:26:37.314Z,14.30
2022-10-01T02:29:08.763Z,19.13
2022-10-01T02:31:38.380Z,15.93
2022-10-01T02:34:12.352Z,12.57
2022-10-01T02:36:42.696Z,11.68
2022-10-01T02:39:12.945Z,17.17
2022-10-01T02:41:45.178Z,9.63
2022-10-01T02:44:20.815Z,17.83
2022-10-01T02:46:56.247Z,17.55
2022-10-01T02:49:28.586Z,16.30
2022-10-01T02:52:05.445Z,18.30
2022-10-01T02:54:39.608Z,15.23
2022-10-01T02:57:28.446Z,17.60
2022-10-01T02:59:59.874Z,19.92
2022-10-01T03:02:31.808Z,20.40
2022-10-01T03:05:01.203Z,18.25
2022-10-01T03:07:32.109Z,21.10
2022-10-01T03:10:00.170Z,13.05
2022-10-01T03:12:28.321Z,17.17
2022-10-01T03:14:56.771Z,12.27
2022-10-01T03:17:24.913Z,17.15
2022-10-01T03:19:54.213Z,18.05
2022-10-01T03:22:23.717Z,10.23
2022-10-01T03:24:52.076Z,14.20
2022-10-01T03:27:20.243Z,16.13
2022-10-01T03:29:48.765Z,10.57
2022-10-01T03:32:17.797Z,10.15
2022-10-01T03:34:46.238Z,11.23
2022-10-01T03:37:15.573Z,11.40
2022-10-01T03:39:43.816Z,10.38
2022-10-01T03:42:11.786Z,9.77
2022-10-01T03:44:39.977Z,10.23
2022-10-01T03:47:08.275Z,14.25
2022-10-01T03:49:36.375Z,7.57
2022-10-01T03:52:05.403Z,6.60
2022-10-01T03:54:35.096Z,21.83
2022-10-01T03:57:03.497Z,10.20
2022-10-01T03:59:31.496Z,7.80
2022-10-01T04:01:59.724Z,7.40
2022-10-01T04:04:29.052Z,6.03
2022-10-01T04:06:57.041Z,7.60
2022-10-01T04:09:25.058Z,7.30
2022-10-01T04:11:54.406Z,13.95
2022-10-01T04:14:22.365Z,6.18
2022-10-01T04:16:52.656Z,6.35
2022-10-01T04:19:21.123Z,14.52
2022-10-01T04:21:48.945Z,6.95
2022-10-01T04:24:16.875Z,7.00
2022-10-01T04:26:44.787Z,13.35
2022-10-01T04:29:14.251Z,7.22
2022-10-01T04:31:42.324Z,7.60
2022-10-01T04:34:10.346Z,8.80
2022-10-01T04:36:38.275Z,7.82
2022-10-01T04:39:06.739Z,7.88
2022-10-01T04:41:35.016Z,8.07
2022-10-01T04:44:03.486Z,7.07
2022-10-01T04:46:32.935Z,6.93
2022-10-01T04:49:01.112Z,9.75
2022-10-01T04:51:29.701Z,8.55
2022-10-01T04:53:57.725Z,11.27
2022-10-01T04:56:25.887Z,8.82
2022-10-01T04:58:53.969Z,11.05
2022-10-01T05:01:21.955Z,10.93
2022-10-01T05:03:51.468Z,8.75
2022-10-01T05:06:19.650Z,10.63
2022-10-01T05:08:48.239Z,8.35
2022-10-01T05:11:16.154Z,8.98
2022-10-01T05:13:44.227Z,8.05
2022-10-01T05:16:12.277Z,7.43
2022-10-01T05:18:40.589Z,9.00
2022-10-01T05:21:11.855Z,11.88
2022-10-01T05:23:39.794Z,7.78
2022-10-01T05:26:07.768Z,8.00
2022-10-01T05:28:37.173Z,7.30
2022-10-01T05:31:05.685Z,10.35
2022-10-01T05:33:34.526Z,10.07
2022-10-01T05:36:07.473Z,9.70
2022-10-01T05:38:37.447Z,9.48
2022-10-01T05:41:08.013Z,10.63
2022-10-01T05:43:36.133Z,9.15
2022-10-01T05:46:06.446Z,14.77
2022-10-01T05:48:38.032Z,11.00
2022-10-01T05:51:08.319Z,15.65
2022-10-01T05:53:39.082Z,10.55
2022-10-01T05:56:07.740Z,11.70
2022-10-01T05:58:36.241Z,18.27
2022-10-01T06:01:04.388Z,12.18
2022-10-01T06:03:33.399Z,12.05
2022-10-01T06:06:01.849Z,15.98
2022-10-01T06:08:29.782Z,13.88
2022-10-01T06:11:02.720Z,15.70
2022-10-01T06:13:32.037Z,15.95
2022-10-01T06:16:00.076Z,11.27
2022-10-01T06:18:28.572Z,12.80
2022-10-01T06:20:58.824Z,13.60
2022-10-01T06:23:26.905Z,18.27
2022-10-01T06:25:55.323Z,12.13
2022-10-01T06:28:24.610Z,12.13
2022-10-01T06:30:52.547Z,13.00
2022-10-01T06:33:20.992Z,13.40
2022-10-01T06:35:50.914Z,18.30
2022-10-01T06:38:21.042Z,18.05
2022-10-01T06:40:53.728Z,23.50
2022-10-01T06:43:21.874Z,39.65
2022-10-01T06:45:51.808Z,37.70
2022-10-01T06:48:21.026Z,42.63
2022-10-01T06:50:50.826Z,35.55
2022-10-01T06:53:18.250Z,44.50
2022-10-01T06:55:46.777Z,43.50
2022-10-01T06:58:16.790Z,44.15
2022-10-01T07:00:45.354Z,36.38
2022-10-01T07:03:16.946Z,46.65
2022-10-01T07:05:45.253Z,34.47
2022-10-01T07:08:13.185Z,32.15
2022-10-01T07:10:42.761Z,32.58
2022-10-01T07:13:14.316Z,35.85
2022-10-01T07:15:42.425Z,31.08
2022-10-01T07:18:11.364Z,28.00
2022-10-01T07:20:41.064Z,21.65
2022-10-01T07:23:11.426Z,21.75
2022-10-01T07:25:40.551Z,14.98
2022-10-01T07:28:16.916Z,10.20
2022-10-01T07:30:48.469Z,7.45
2022-10-01T07:33:19.644Z,4.47
2022-10-01T07:35:50.087Z,4.95
2022-10-01T07:38:18.647Z,4.38
2022-10-01T07:40:52.052Z,5.00
2022-10-01T07:43:20.112Z,4.88
2022-10-01T07:45:52.831Z,5.28
2022-10-01T07:48:20.778Z,6.32
2022-10-01T07:50:51.122Z,4.03
2022-10-01T07:53:19.984Z,7.25
2022-10-01T07:55:51.200Z,3.60
2022-10-01T07:58:24.071Z,4.63
2022-10-01T08:00:56.327Z,6.03
2022-10-01T08:03:24.493Z,2.97
2022-10-01T08:05:54.704Z,4.80
2022-10-01T08:08:23.095Z,3.88
2022-10-01T08:10:53.010Z,5.60
2022-10-01T08:13:25.066Z,2.15
2022-10-01T08:15:54.664Z,4.68
2022-10-01T08:18:23.471Z,4.90
2022-10-01T08:20:52.874Z,3.10
2022-10-01T08:23:22.688Z,2.25
2022-10-01T08:25:54.148Z,3.05
2022-10-01T08:28:22.428Z,3.20
2022-10-01T08:30:50.381Z,4.10
2022-10-01T08:33:18.445Z,5.38
2022-10-01T08:35:46.480Z,2.47
2022-10-01T08:38:16.091Z,4.22
2022-10-01T08:40:48.917Z,4.82
2022-10-01T08:43:32.954Z,2.20
2022-10-01T08:46:04.237Z,2.13
2022-10-01T08:48:45.733Z,2.92
2022-10-01T08:51:21.354Z,3.10
2022-10-01T08:53:54.623Z,3.08
2022-10-01T08:56:29.221Z,2.72
2022-10-01T08:58:59.590Z,4.10
2022-10-01T09:01:48.566Z,2.80
2022-10-01T09:04:17.267Z,2.90
2022-10-01T09:06:51.503Z,3.33
2022-10-01T09:09:33.682Z,3.72
2022-10-01T09:12:18.964Z,3.97
2022-10-01T09:15:02.643Z,3.03
2022-10-01T09:17:45.440Z,4.55
2022-10-01T09:20:22.295Z,4.47
2022-10-01T09:23:05.410Z,4.13
2022-10-01T09:25:38.573Z,3.97
2022-10-01T09:28:15.959Z,5.78
2022-10-01T09:30:50.135Z,2.25
2022-10-01T09:33:20.981Z,4.15
2022-10-01T09:35:52.841Z,2.67
2022-10-01T09:38:27.242Z,2.92
2022-10-01T09:40:56.887Z,5.38
2022-10-01T09:43:29.669Z,7.13
2022-10-01T09:45:58.129Z,5.68
2022-10-01T09:48:34.093Z,5.35
2022-10-01T09:51:11.853Z,4.65
2022-10-01T09:53:45.189Z,5.28
2022-10-01T09:56:25.264Z,2.65
2022-10-01T09:59:13.862Z,2.65
2022-10-01T10:01:45.804Z,3.22
2022-10-01T10:04:20.259Z,5.07
2022-10-01T10:06:49.083Z,3.47
2022-10-01T10:09:19.754Z,2.67
2022-10-01T10:11:47.767Z,3.85
2022-10-01T10:14:23.543Z,2.00
2022-10-01T10:16:52.010Z,5.13
2022-10-01T10:19:24.920Z,4.07
2022-10-01T10:21:57.497Z,5.03
2022-10-01T10:24:28.404Z,7.35
2022-10-01T10:26:59.339Z,40.25
2022-10-01T10:29:33.255Z,7.47
2022-10-01T10:32:05.354Z,6.57
2022-10-01T10:34:38.667Z,6.28
2022-10-01T10:37:14.919Z,7.50
2022-10-01T10:39:50.310Z,8.57
2022-10-01T10:42:25.039Z,7.32
2022-10-01T10:45:00.354Z,128.25
2022-10-01T10:47:34.675Z,59.08
2022-10-01T10:50:20.580Z,12.25
2022-10-01T10:52:48.522Z,5.38
2022-10-01T10:55:25.388Z,4.55
2022-10-01T10:57:57.586Z,5.57
2022-10-01T11:00:30.209Z,4.07
2022-10-01T11:03:01.047Z,3.47
2022-10-01T11:05:34.040Z,2.60
2022-10-01T11:08:05.378Z,3.22
2022-10-01T11:10:44.534Z,3.20
2022-10-01T11:13:33.773Z,2.35
2022-10-01T11:16:26.012Z,2.35
2022-10-01T11:19:23.674Z,3.90
2022-10-01T11:22:17.019Z,2.15
2022-10-01T11:25:14.807Z,2.70
2022-10-01T11:27:53.325Z,4.40
2022-10-01T11:30:26.035Z,4.25
2022-10-01T11:33:07.503Z,5.18
2022-10-01T11:35:55.456Z,4.78
2022-10-01T11:38:40.036Z,5.50
2022-10-01T11:41:19.875Z,9.57
2022-10-01T11:43:53.555Z,4.80
2022-10-01T11:46:34.493Z,5.47
2022-10-01T11:49:21.354Z,10.52
2022-10-01T11:51:52.697Z,13.50
2022-10-01T11:54:27.378Z,11.55
2022-10-01T11:57:17.242Z,9.95
2022-10-01T11:59:51.349Z,11.57
2022-10-01T12:02:25.431Z,10.45
2022-10-01T12:04:59.459Z,9.48
2022-10-01T12:07:33.871Z,6.90
2022-10-01T12:10:07.989Z,9.88
2022-10-01T12:12:47.702Z,8.60
2022-10-01T12:15:21.930Z,7.40
2022-10-01T12:17:55.617Z,6.90
2022-10-01T12:20:31.990Z,7.90
2022-10-01T12:23:03.767Z,7.45
2022-10-01T12:25:44.619Z,6.18
2022-10-01T12:28:17.868Z,6.20
2022-10-01T12:30:53.884Z,7.15
2022-10-01T12:33:44.159Z,8.95
2022-10-01T12:36:25.250Z,5.53
2022-10-01T12:39:12.524Z,8.57
2022-10-01T12:41:53.929Z,7.55
2022-10-01T12:44:38.576Z,5.55
2022-10-01T12:47:20.538Z,5.97
2022-10-01T12:49:56.631Z,6.95
2022-10-01T12:52:38.629Z,5.45
2022-10-01T12:55:50.336Z,4.63
2022-10-01T12:58:34.073Z,3.40
2022-10-01T13:01:09.208Z,4.63
2022-10-01T13:04:05.050Z,5.85
2022-10-01T13:06:41.604Z,7.60
2022-10-01T13:09:32.958Z,8.48
2022-10-01T13:12:15.241Z,4.95
2022-10-01T13:14:44.913Z,9.02
2022-10-01T13:17:19.848Z,4.53
2022-10-01T13:19:56.162Z,5.18
2022-10-01T13:22:35.387Z,5.38
2022-10-01T13:25:21.016Z,5.13
2022-10-01T13:27:57.863Z,4.35
2022-10-01T13:30:28.565Z,6.35
2022-10-01T13:33:00.977Z,5.75
2022-10-01T13:35:35.498Z,5.13
2022-10-01T13:38:15.807Z,5.63
2022-10-01T13:40:46.163Z,6.50
2022-10-01T13:43:19.166Z,7.30
2022-10-01T13:45:51.563Z,5.00
2022-10-01T13:48:23.623Z,5.60
2022-10-01T13:50:58.314Z,3.28
2022-10-01T13:53:29.753Z,4.18
2022-10-01T13:55:59.517Z,4.47
2022-10-01T13:58:37.010Z,4.97
2022-10-01T14:01:12.481Z,4.28
2022-10-01T14:03:57.323Z,3.05
2022-10-01T14:06:32.519Z,5.57
2022-10-01T14:09:11.171Z,2.38
2022-10-01T14:12:03.317Z,5.75
2022-10-01T14:14:54.209Z,4.70
2022-10-01T14:17:32.243Z,2.92
2022-10-01T14:20:02.199Z,5.82
2022-10-01T14:22:45.192Z,2.88
2022-10-01T14:25:34.729Z,6.80
2022-10-01T14:28:19.187Z,7.63
2022-10-01T14:30:56.332Z,3.65
2022-10-01T14:33:55.679Z,4.00
2022-10-01T14:36:31.938Z,20.17
2022-10-01T14:39:15.403Z,13.77
2022-10-01T14:41:44.484Z,4.70
2022-10-01T14:44:25.950Z,6.40
2022-10-01T14:46:55.523Z,3.00
2022-10-01T14:49:27.150Z,3.72
2022-10-01T14:52:00.821Z,3.30
2022-10-01T14:54:31.437Z,4.25
2022-10-01T14:56:59.926Z,4.70
2022-10-01T14:59:34.680Z,5.93
2022-10-01T15:02:05.027Z,5.05
2022-10-01T15:04:33.313Z,8.98
2022-10-01T15:07:06.174Z,7.07
2022-10-01T15:09:35.174Z,4.75
2022-10-01T15:12:06.324Z,6.32
2022-10-01T15:14:38.066Z,6.00
2022-10-01T15:17:08.075Z,10.50
2022-10-01T15:19:44.728Z,9.05
2022-10-01T15:22:13.304Z,8.55
2022-10-01T15:24:57.057Z,7.82
2022-10-01T15:27:26.126Z,10.13
2022-10-01T15:29:58.776Z,11.05
2022-10-01T15:32:31.018Z,11.40
2022-10-01T15:35:02.438Z,8.00
2022-10-01T15:37:34.733Z,9.13
2022-10-01T15:40:05.424Z,10.05
2022-10-01T15:42:35.480Z,12.07
2022-10-01T15:45:25.258Z,10.45
2022-10-01T15:47:57.216Z,18.08
2022-10-01T15:50:28.177Z,11.90
2022-10-01T15:53:03.481Z,11.60
2022-10-01T15:55:35.577Z,14.52
2022-10-01T15:58:15.154Z,10.80
2022-10-01T16:01:00.246Z,12.70
2022-10-01T16:03:31.801Z,12.45
2022-10-01T16:06:03.104Z,14.82
2022-10-01T16:08:35.587Z,24.00
2022-10-01T16:11:17.168Z,16.98
2022-10-01T16:13:46.904Z,16.60
2022-10-01T16:16:30.805Z,18.02
2022-10-01T16:19:01.266Z,13.70
2022-10-01T16:21:29.428Z,13.00
2022-10-01T16:23:57.795Z,19.77
2022-10-01T16:26:38.480Z,22.42
2022-10-01T16:29:24.512Z,21.42
2022-10-01T16:31:54.585Z,16.38
2022-10-01T16:34:22.856Z,17.70
2022-10-01T16:36:51.193Z,19.30
2022-10-01T16:39:19.690Z,22.42
2022-10-01T16:42:01.696Z,24.20
2022-10-01T16:44:40.738Z,20.58
2022-10-01T16:47:11.440Z,20.95
2022-10-01T16:49:39.406Z,16.60
2022-10-01T16:52:07.316Z,16.08
2022-10-01T16:54:35.593Z,20.77
2022-10-01T16:57:03.607Z,22.42
2022-10-01T16:59:33.823Z,100.55
2022-10-01T17:02:02.262Z,18.55
2022-10-01T17:04:34.249Z,40.72
2022-10-01T17:07:02.809Z,22.70
2022-10-01T17:09:30.680Z,33.40
2022-10-01T17:11:59.204Z,25.75
2022-10-01T17:14:27.853Z,24.40
2022-10-01T17:16:55.991Z,28.70
2022-10-01T17:19:25.063Z,30.08
2022-10-01T17:21:55.884Z,34.53
2022-10-01T17:24:23.800Z,40.72
2022-10-01T17:26:52.198Z,38.25
2022-10-01T17:29:20.237Z,38.92
2022-10-01T17:31:52.645Z,44.80
2022-10-01T17:34:21.322Z,52.22
2022-10-01T17:36:49.592Z,52.67
2022-10-01T17:39:19.114Z,41.42
2022-10-01T17:41:47.041Z,37.58
2022-10-01T17:44:15.185Z,33.30
2022-10-01T17:46:43.529Z,27.88
2022-10-01T17:49:11.700Z,31.95
2022-10-01T17:51:39.760Z,40.85
2022-10-01T17:54:07.989Z,37.80
2022-10-01T17:56:38.895Z,34.88
2022-10-01T17:59:06.845Z,23.88
2022-10-01T18:01:38.315Z,26.30
2022-10-01T18:04:06.236Z,25.60
2022-10-01T18:06:34.681Z,27.48
2022-10-01T18:09:02.983Z,20.80
2022-10-01T18:11:30.954Z,27.00
2022-10-01T18:14:00.971Z,23.52
2022-10-01T18:16:29.410Z,27.23
2022-10-01T18:19:52.343Z,24.17
2022-10-01T18:21:46.105Z,28.60
2022-10-01T18:24:17.383Z,25.63
2022-10-01T18:26:46.849Z,28.42
2022-10-01T18:29:19.966Z,33.75
2022-10-01T18:31:52.740Z,32.00
2022-10-01T18:34:26.396Z,36.45
2022-10-01T18:36:59.830Z,36.63
2022-10-01T18:39:33.719Z,29.80
2022-10-01T18:42:05.217Z,26.02
2022-10-01T18:44:36.384Z,26.77
2022-10-01T18:47:17.935Z,31.05
2022-10-01T18:50:01.236Z,28.13
2022-10-01T18:52:43.991Z,30.08
2022-10-01T18:55:30.457Z,27.90
2022-10-01T18:58:15.115Z,26.73
2022-10-01T19:00:56.318Z,31.08
2022-10-01T19:03:45.730Z,23.95
2022-10-01T19:06:29.668Z,28.88
2022-10-01T19:09:15.513Z,29.02
2022-10-01T19:11:52.392Z,26.13
2022-10-01T19:15:00.486Z,34.63
2022-10-01T19:17:56.156Z,31.15
2022-10-01T19:20:37.675Z,26.25
2022-10-01T19:23:21.381Z,31.88
2022-10-01T19:25:52.501Z,31.50
2022-10-01T19:28:43.538Z,32.13
2022-10-01T19:31:17.512Z,31.05
2022-10-01T19:33:53.072Z,30.27
2022-10-01T19:36:30.408Z,34.47
2022-10-01T19:39:06.126Z,26.70
2022-10-01T19:41:40.365Z,25.58
2022-10-01T19:44:15.340Z,31.67
2022-10-01T19:46:45.474Z,30.42
2022-10-01T19:49:21.488Z,26.23
2022-10-01T19:51:52.938Z,36.17
2022-10-01T19:54:24.762Z,28.20
2022-10-01T19:56:56.340Z,32.17
2022-10-01T19:59:24.331Z,23.05
2022-10-01T20:01:55.345Z,30.95
2022-10-01T20:04:33.081Z,24.00
2022-10-01T20:07:05.967Z,25.95
2022-10-01T20:09:43.179Z,30.63
2022-10-01T20:12:22.840Z,24.73
2022-10-01T20:15:13.601Z,21.17
2022-10-01T20:17:57.218Z,33.40
2022-10-01T20:20:32.901Z,20.92
2022-10-01T20:23:21.828Z,29.23
2022-10-01T20:25:54.993Z,23.45
2022-10-01T20:28:28.668Z,24.63
2022-10-01T20:31:03.460Z,25.88
2022-10-01T20:33:43.076Z,29.98
2022-10-01T20:36:19.841Z,31.27
2022-10-01T20:38:54.908Z,30.52
2022-10-01T20:41:24.735Z,21.40
2022-10-01T20:43:57.393Z,25.77
2022-10-01T20:46:35.133Z,27.13
2022-10-01T20:49:06.347Z,30.77
2022-10-01T20:51:43.183Z,26.60
2022-10-01T20:54:16.186Z,27.65
2022-10-01T20:56:48.759Z,24.92
2022-10-01T20:59:20.434Z,36.10
2022-10-01T21:02:01.110Z,27.00
2022-10-01T21:04:33.794Z,29.90
2022-10-01T21:07:19.559Z,50.63
2022-10-01T21:09:51.560Z,27.27
2022-10-01T21:12:24.650Z,30.75
2022-10-01T21:14:55.930Z,30.70
2022-10-01T21:17:35.820Z,24.95
2022-10-01T21:20:35.937Z,31.38
2022-10-01T21:23:15.119Z,29.63
2022-10-01T21:25:56.967Z,30.17
2022-10-01T21:28:43.555Z,27.08
2022-10-01T21:31:26.194Z,33.55
2022-10-01T21:34:01.277Z,31.55
2022-10-01T21:36:35.309Z,31.58
2022-10-01T21:39:12.552Z,25.90
2022-10-01T21:41:53.776Z,30.95
2022-10-01T21:44:58.852Z,34.45
2022-10-01T21:47:39.500Z,34.30
2022-10-01T21:50:20.947Z,35.70
2022-10-01T21:53:07.998Z,40.70
2022-10-01T21:56:03.655Z,44.35
2022-10-01T21:58:49.605Z,34.53
2022-10-01T22:01:27.009Z,45.08
2022-10-01T22:04:04.700Z,36.33
2022-10-01T22:06:40.927Z,35.38
2022-10-01T22:09:17.994Z,35.53
2022-10-01T22:11:52.931Z,36.95
2022-10-01T22:14:23.368Z,38.10
2022-10-01T22:16:55.282Z,33.80
2022-10-01T22:19:29.202Z,38.63
2022-10-01T22:22:04.030Z,37.63
2022-10-01T22:24:39.778Z,36.90
2022-10-01T22:27:14.856Z,45.17
2022-10-01T22:29:50.241Z,48.05
2022-10-01T22:32:23.325Z,46.50
2022-10-01T22:34:58.927Z,47.97
2022-10-01T22:37:33.066Z,52.75
2022-10-01T22:40:14.740Z,60.10
2022-10-01T22:42:52.400Z,46.42
2022-10-01T22:45:27.133Z,50.30
2022-10-01T22:48:08.034Z,49.10
2022-10-01T22:50:52.560Z,47.30
2022-10-01T22:53:35.758Z,52.40
2022-10-01T22:56:03.749Z,44.33
2022-10-01T22:58:48.943Z,42.72
2022-10-01T23:01:26.214Z,44.90
2022-10-01T23:04:12.071Z,37.58
2022-10-01T23:06:45.864Z,39.10
2022-10-01T23:09:19.002Z,37.63
2022-10-01T23:11:56.744Z,38.72
2022-10-01T23:14:40.271Z,37.33
2022-10-01T23:17:15.227Z,32.17
2022-10-01T23:19:52.903Z,28.73
2022-10-01T23:22:37.205Z,30.88
2022-10-01T23:25:17.444Z,41.00
2022-10-01T23:28:00.612Z,30.42
2022-10-01T23:30:40.425Z,30.38
2022-10-01T23:33:27.982Z,37.72
2022-10-01T23:36:06.953Z,36.95
2022-10-01T23:39:02.925Z,44.03
2022-10-01T23:41:38.663Z,38.72
2022-10-01T23:44:15.493Z,37.60
2022-10-01T23:46:51.637Z,35.40
2022-10-01T23:49:24.114Z,39.42
2022-10-01T23:51:59.724Z,32.92
2022-10-01T23:54:31.439Z,42.92
2022-10-01T23:57:09.154Z,54.25
2022-10-01T23:59:41.600Z,35.75
